Time;durP1;ratioP1;P1;durP2;ratioP2;P2;SDS_P1;SDS_P2;PMS_P1;PMS_P2;Temp;Humidity;BMP_temperature;BMP_pressure;BME280_temperature;BME280_humidity;BME280_pressure;Samples;Min_cycle;Max_cycle;Signal;HPM_P1;HPM_P2
2024/01/21 00:00:11;;;;;;;22.70;15.77;;;1.80;98.00;;;;;;5092225;28;20057;-48
2024/01/21 00:02:37;;;;;;;19.80;13.95;;;1.80;98.00;;;;;;5056381;28;20036;-48
2024/01/21 00:05:03;;;;;;;19.90;14.98;;;1.90;98.00;;;;;;5091971;28;20514;-49
2024/01/21 00:07:28;;;;;;;21.63;15.57;;;1.90;97.80;;;;;;5092275;28;20031;-48
2024/01/21 00:09:54;;;;;;;21.40;15.02;;;1.90;97.60;;;;;;5072794;28;20035;-48
2024/01/21 00:12:21;;;;;;;23.45;15.55;;;1.90;97.30;;;;;;5091897;28;20039;-48
2024/01/21 00:14:46;;;;;;;20.90;14.82;;;1.80;97.40;;;;;;5072838;28;20036;-48
2024/01/21 00:17:12;;;;;;;22.17;14.73;;;1.80;97.40;;;;;;5091679;28;20031;-48
2024/01/21 00:19:39;;;;;;;20.90;14.30;;;1.80;97.50;;;;;;5056056;28;20050;-49
2024/01/21 00:22:05;;;;;;;20.20;12.75;;;1.60;97.50;;;;;;5091550;28;20130;-49
2024/01/21 00:24:31;;;;;;;21.42;14.20;;;1.20;98.90;;;;;;5091029;28;20039;-48
2024/01/21 00:26:58;;;;;;;22.05;15.43;;;1.00;99.90;;;;;;5091823;28;20032;-47
2024/01/21 00:29:24;;;;;;;20.17;14.13;;;1.00;99.90;;;;;;5091437;28;20032;-48
2024/01/21 00:31:50;;;;;;;28.23;15.35;;;1.10;99.70;;;;;;5091336;28;20479;-48
2024/01/21 00:34:15;;;;;;;22.55;16.42;;;0.90;99.90;;;;;;5091312;28;20028;-48
2024/01/21 00:36:41;;;;;;;26.02;14.60;;;1.00;99.90;;;;;;5091177;28;20097;-49
2024/01/21 00:39:07;;;;;;;24.77;15.50;;;0.90;99.90;;;;;;5091305;28;20032;-49
2024/01/21 00:41:32;;;;;;;28.73;17.88;;;1.00;99.90;;;;;;5072209;28;20036;-47
2024/01/21 00:43:58;;;;;;;31.33;18.77;;;1.00;99.90;;;;;;5072151;28;20048;-48
2024/01/21 00:46:24;;;;;;;25.27;15.63;;;1.10;99.80;;;;;;5072086;28;20119;-48
2024/01/21 00:48:49;;;;;;;21.23;13.75;;;0.50;99.90;;;;;;5091069;28;20028;-48
2024/01/21 00:51:15;;;;;;;20.70;14.93;;;0.20;99.90;;;;;;5091518;28;20078;-48
2024/01/21 00:53:41;;;;;;;24.55;16.25;;;0.10;99.90;;;;;;5091050;28;20119;-48
2024/01/21 00:56:07;;;;;;;27.80;19.55;;;0.20;99.90;;;;;;5091184;28;20055;-48
2024/01/21 00:58:32;;;;;;;24.27;14.98;;;0.40;99.90;;;;;;5091023;28;20036;-48
2024/01/21 01:00:58;;;;;;;23.80;15.52;;;0.40;99.90;;;;;;5090993;28;20028;-48
2024/01/21 01:03:24;;;;;;;23.35;14.82;;;0.40;99.90;;;;;;5090827;28;20049;-48
2024/01/21 01:05:50;;;;;;;21.80;15.18;;;0.40;99.90;;;;;;5090874;28;20475;-48
2024/01/21 01:08:17;;;;;;;27.63;15.27;;;0.80;99.90;;;;;;5090950;28;20028;-48
2024/01/21 01:10:43;;;;;;;22.58;14.70;;;0.80;99.90;;;;;;5090894;28;20067;-48
2024/01/21 01:13:09;;;;;;;24.58;16.25;;;0.90;99.90;;;;;;5090967;28;20476;-48
2024/01/21 01:15:35;;;;;;;19.42;13.68;;;1.00;99.90;;;;;;5090798;28;20035;-48
2024/01/21 01:18:02;;;;;;;25.15;14.40;;;1.00;99.90;;;;;;5090708;28;20039;-48
2024/01/21 01:20:27;;;;;;;21.63;14.23;;;1.00;99.90;;;;;;5038525;28;20073;-48
2024/01/21 01:22:53;;;;;;;18.25;13.27;;;1.00;99.80;;;;;;5071731;28;20143;-47
2024/01/21 01:25:19;;;;;;;18.05;12.73;;;0.70;99.90;;;;;;5054893;28;20174;-49
2024/01/21 01:27:45;;;;;;;22.90;13.00;;;0.70;99.90;;;;;;5090939;28;20029;-48
2024/01/21 01:30:11;;;;;;;23.58;14.82;;;0.80;99.90;;;;;;5090854;28;20556;-49
2024/01/21 01:32:36;;;;;;;19.50;13.15;;;0.90;99.90;;;;;;5071578;28;20032;-48
2024/01/21 01:35:04;;;;;;;19.13;12.82;;;1.00;99.60;;;;;;5072017;28;20176;-48
2024/01/21 01:37:30;;;;;;;19.08;12.45;;;1.00;99.60;;;;;;5075918;28;20553;-48
2024/01/21 01:39:56;;;;;;;17.67;12.23;;;1.00;99.90;;;;;;5094737;28;20075;-48
2024/01/21 01:42:22;;;;;;;18.80;12.98;;;1.20;99.60;;;;;;5094712;28;20059;-48
2024/01/21 01:44:47;;;;;;;23.38;14.05;;;1.20;99.10;;;;;;5094493;28;20039;-48
2024/01/21 01:47:13;;;;;;;16.90;13.25;;;1.30;98.80;;;;;;5075581;28;20032;-48
2024/01/21 01:49:42;;;;;;;18.48;11.27;;;1.30;98.80;;;;;;5093981;28;20028;-48
2024/01/21 01:52:13;;;;;;;16.92;11.05;;;1.30;98.60;;;;;;5112170;28;20522;-48
2024/01/21 01:54:41;;;;;;;19.15;11.45;;;1.30;98.60;;;;;;5114657;28;20042;-48
2024/01/21 01:57:07;;;;;;;25.45;14.27;;;1.40;98.80;;;;;;5062289;28;20037;-48
2024/01/21 01:59:34;;;;;;;22.63;11.77;;;1.50;98.70;;;;;;5061764;28;20118;-49
2024/01/21 02:02:00;;;;;;;19.17;11.15;;;1.40;98.80;;;;;;5114845;28;20060;-48
2024/01/21 02:04:28;;;;;;;16.17;11.00;;;1.40;98.70;;;;;;5114717;28;20100;-48
2024/01/21 02:06:54;;;;;;;19.50;13.18;;;1.40;98.70;;;;;;5114707;28;20058;-48
2024/01/21 02:09:19;;;;;;;18.65;13.30;;;1.40;99.00;;;;;;5115016;28;20067;-48
2024/01/21 02:11:45;;;;;;;21.70;13.10;;;1.40;99.00;;;;;;5114302;28;20387;-48
2024/01/21 02:14:12;;;;;;;18.73;12.55;;;1.40;98.80;;;;;;5061737;28;20724;-49
2024/01/21 02:16:38;;;;;;;19.17;12.32;;;1.40;98.80;;;;;;5114343;28;20039;-48
2024/01/21 02:19:16;;;;;;;18.95;12.45;;;1.40;99.00;;;;;;5078138;28;20038;-48
2024/01/21 02:21:41;;;;;;;19.08;13.30;;;1.40;99.10;;;;;;5114303;28;20129;-48
2024/01/21 02:24:07;;;;;;;19.75;13.68;;;1.50;98.90;;;;;;5061701;28;20057;-48
2024/01/21 02:26:33;;;;;;;20.58;12.88;;;1.60;98.70;;;;;;5077883;28;20039;-48
2024/01/21 02:28:59;;;;;;;21.55;12.50;;;1.60;98.60;;;;;;5108036;28;20543;-48
2024/01/21 02:31:24;;;;;;;20.30;12.23;;;1.50;98.80;;;;;;5114334;28;20052;-48
2024/01/21 02:33:50;;;;;;;21.23;12.52;;;1.50;98.80;;;;;;5113959;28;20027;-48
2024/01/21 02:36:16;;;;;;;16.50;12.50;;;1.50;98.60;;;;;;5097419;28;20097;-48
2024/01/21 02:38:41;;;;;;;18.30;11.63;;;1.50;98.50;;;;;;5074387;28;20040;-48
2024/01/21 02:41:07;;;;;;;18.13;11.30;;;1.50;98.50;;;;;;5093900;28;20031;-47
2024/01/21 02:43:33;;;;;;;18.00;10.80;;;1.50;98.60;;;;;;5093339;28;20035;-48
2024/01/21 02:45:58;;;;;;;18.48;12.07;;;1.40;98.60;;;;;;5092906;28;20467;-47
2024/01/21 02:48:24;;;;;;;20.60;12.30;;;1.40;98.70;;;;;;5093672;28;20480;-49
2024/01/21 02:50:50;;;;;;;16.52;11.38;;;1.40;98.70;;;;;;5093432;28;20669;-48
2024/01/21 02:53:16;;;;;;;17.95;12.82;;;1.40;98.60;;;;;;5074258;28;20036;-48
2024/01/21 02:55:42;;;;;;;21.40;12.90;;;1.50;99.20;;;;;;5093135;28;20036;-48
2024/01/21 02:58:08;;;;;;;18.00;12.23;;;1.50;99.00;;;;;;5093260;28;20038;-48
2024/01/21 03:00:34;;;;;;;22.35;13.55;;;1.50;98.90;;;;;;5093130;28;20032;-49
2024/01/21 03:02:59;;;;;;;20.10;12.75;;;1.50;98.80;;;;;;5093602;28;20032;-48
2024/01/21 03:05:25;;;;;;;17.27;13.10;;;1.50;99.00;;;;;;5092981;28;20503;-48
2024/01/21 03:07:51;;;;;;;16.60;12.07;;;1.50;98.90;;;;;;5092079;28;20035;-49
2024/01/21 03:10:16;;;;;;;16.55;11.98;;;1.60;98.90;;;;;;5092961;28;20024;-48
2024/01/21 03:12:42;;;;;;;17.15;11.48;;;1.60;99.00;;;;;;5073898;28;20032;-48
2024/01/21 03:15:08;;;;;;;112.68;50.97;;;1.60;99.20;;;;;;5073655;28;20063;-48
2024/01/21 03:17:34;;;;;;;19.27;12.98;;;1.60;99.20;;;;;;5073736;28;20036;-47
2024/01/21 03:20:00;;;;;;;16.70;10.85;;;1.50;99.30;;;;;;5092728;28;20027;-49
2024/01/21 03:22:27;;;;;;;18.05;10.88;;;1.50;99.10;;;;;;5073697;28;20056;-49
2024/01/21 03:24:53;;;;;;;15.93;11.02;;;1.40;99.40;;;;;;5092354;28;20080;-47
2024/01/21 03:27:19;;;;;;;18.67;12.25;;;1.40;99.40;;;;;;5092795;28;20047;-49
2024/01/21 03:29:44;;;;;;;17.20;10.93;;;1.40;99.10;;;;;;5092850;28;20024;-48
2024/01/21 03:32:10;;;;;;;16.73;11.10;;;1.40;99.30;;;;;;5092464;28;20114;-48
2024/01/21 03:34:41;;;;;;;17.00;11.88;;;1.40;99.10;;;;;;5092452;28;20486;-49
2024/01/21 03:37:07;;;;;;;18.70;12.45;;;1.40;99.30;;;;;;5092737;28;20081;-48
2024/01/21 03:39:32;;;;;;;19.23;12.40;;;1.40;99.30;;;;;;5092425;28;20028;-49
2024/01/21 03:41:58;;;;;;;15.48;10.82;;;1.40;99.30;;;;;;5092318;28;20399;-48
2024/01/21 03:44:24;;;;;;;15.23;11.23;;;1.40;99.30;;;;;;5092483;28;20131;-48
2024/01/21 03:46:50;;;;;;;17.60;10.88;;;1.40;99.20;;;;;;5092368;28;20024;-48
2024/01/21 03:49:15;;;;;;;16.30;11.10;;;1.40;99.20;;;;;;5092160;28;20048;-48
2024/01/21 03:51:41;;;;;;;15.38;10.70;;;1.50;99.00;;;;;;5092097;28;20430;-49
2024/01/21 03:54:07;;;;;;;17.33;12.50;;;1.50;99.00;;;;;;5092062;28;20062;-48
2024/01/21 03:56:32;;;;;;;14.27;10.10;;;1.50;99.00;;;;;;5092312;28;20459;-48
2024/01/21 03:58:58;;;;;;;15.27;10.77;;;1.50;99.00;;;;;;5072029;28;20062;-48
2024/01/21 04:01:24;;;;;;;14.70;9.98;;;1.50;98.90;;;;;;5092319;28;20108;-49
2024/01/21 04:03:51;;;;;;;13.98;10.95;;;1.40;98.80;;;;;;5089461;28;20051;-48
2024/01/21 04:06:17;;;;;;;17.65;10.73;;;1.40;98.70;;;;;;5091683;28;20463;-48
2024/01/21 04:08:43;;;;;;;17.70;11.75;;;1.40;98.80;;;;;;5092105;28;20031;-48
2024/01/21 04:11:08;;;;;;;15.23;10.98;;;1.30;98.70;;;;;;5091667;28;20119;-48
2024/01/21 04:13:34;;;;;;;15.52;10.93;;;1.30;98.80;;;;;;5091638;28;20035;-49
2024/01/21 04:16:00;;;;;;;18.17;11.02;;;1.30;98.80;;;;;;5091955;28;20059;-48
2024/01/21 04:18:26;;;;;;;17.77;11.43;;;1.30;98.50;;;;;;5091841;28;20452;-48
2024/01/21 04:20:51;;;;;;;18.08;11.10;;;1.30;98.50;;;;;;5091628;28;20367;-48
2024/01/21 04:23:17;;;;;;;19.33;11.02;;;1.20;98.50;;;;;;5091633;28;20127;-48
2024/01/21 04:25:43;;;;;;;16.25;10.93;;;1.20;98.50;;;;;;5091724;28;20024;-48
2024/01/21 04:28:09;;;;;;;16.38;10.98;;;1.10;98.70;;;;;;5091411;28;20032;-48
2024/01/21 04:30:35;;;;;;;19.17;11.82;;;1.10;98.60;;;;;;5091455;28;20028;-48
2024/01/21 04:33:01;;;;;;;17.73;11.40;;;1.10;98.70;;;;;;5091373;28;20077;-48
2024/01/21 04:35:27;;;;;;;20.42;12.48;;;0.80;98.70;;;;;;5091116;28;20064;-48
2024/01/21 04:37:53;;;;;;;24.45;12.85;;;0.70;98.70;;;;;;5091272;28;21287;-48
2024/01/21 04:40:18;;;;;;;36.83;21.70;;;0.70;98.50;;;;;;5091404;28;20028;-48
2024/01/21 04:42:44;;;;;;;33.80;19.15;;;0.60;98.60;;;;;;5091475;28;20036;-49
2024/01/21 04:45:10;;;;;;;26.70;16.63;;;0.60;98.70;;;;;;5091081;28;20043;-48
2024/01/21 04:47:36;;;;;;;21.83;13.93;;;0.70;98.60;;;;;;5091111;28;20047;-49
2024/01/21 04:50:02;;;;;;;19.98;13.68;;;0.60;99.50;;;;;;5072074;28;20085;-48
2024/01/21 04:52:28;;;;;;;24.42;13.88;;;0.60;99.60;;;;;;5071977;28;20036;-49
2024/01/21 04:54:54;;;;;;;22.67;14.60;;;0.50;99.90;;;;;;5091027;28;20024;-49
2024/01/21 04:57:19;;;;;;;20.90;13.90;;;0.30;99.90;;;;;;5091030;28;20032;-48
2024/01/21 04:59:45;;;;;;;20.42;13.40;;;0.20;99.90;;;;;;5071761;28;20065;-47
2024/01/21 05:02:11;;;;;;;21.25;13.10;;;0.40;99.90;;;;;;5090917;28;20108;-48
2024/01/21 05:04:36;;;;;;;19.38;12.70;;;0.40;99.80;;;;;;5090736;28;20070;-49
2024/01/21 05:07:02;;;;;;;26.95;15.20;;;0.20;99.30;;;;;;5091146;28;20082;-48
2024/01/21 05:09:28;;;;;;;21.45;14.38;;;0.20;99.10;;;;;;5071645;28;20071;-48
2024/01/21 05:11:54;;;;;;;29.63;17.67;;;0.20;99.20;;;;;;5088604;28;20036;-48
2024/01/21 05:14:19;;;;;;;25.50;16.77;;;0.20;99.40;;;;;;5090719;28;20054;-48
2024/01/21 05:16:45;;;;;;;32.72;17.83;;;0.30;99.10;;;;;;5071689;28;20163;-48
2024/01/21 05:19:14;;;;;;;27.83;16.58;;;0.40;98.60;;;;;;5090860;28;20035;-48
2024/01/21 05:21:40;;;;;;;26.42;16.08;;;0.30;98.50;;;;;;5090756;28;20032;-48
2024/01/21 05:24:05;;;;;;;19.67;14.02;;;0.30;98.40;;;;;;5071646;28;20506;-48
2024/01/21 05:26:31;;;;;;;20.67;14.27;;;0.30;98.80;;;;;;5071469;28;20037;-49
2024/01/21 05:28:59;;;;;;;24.27;15.70;;;0.30;99.00;;;;;;5090811;28;20032;-48
2024/01/21 05:31:28;;;;;;;27.85;15.90;;;0.30;99.10;;;;;;5090828;28;20028;-47
2024/01/21 05:33:54;;;;;;;28.83;15.70;;;0.40;98.60;;;;;;5090566;28;20039;-48
2024/01/21 05:36:20;;;;;;;27.15;16.13;;;0.40;98.40;;;;;;5090461;28;20060;-48
2024/01/21 05:38:46;;;;;;;22.02;15.07;;;0.40;98.20;;;;;;5090459;28;20106;-48
2024/01/21 05:41:15;;;;;;;25.10;14.63;;;0.40;98.50;;;;;;5090569;28;20030;-48
2024/01/21 05:43:41;;;;;;;26.73;16.13;;;0.30;99.00;;;;;;5090393;28;20058;-48
2024/01/21 05:46:06;;;;;;;25.40;16.25;;;0.20;98.60;;;;;;5090451;28;20024;-48
2024/01/21 05:48:32;;;;;;;20.58;14.50;;;0.20;98.60;;;;;;5090472;28;20089;-48
2024/01/21 05:50:58;;;;;;;20.33;12.98;;;0.30;98.50;;;;;;5090460;28;20516;-48
2024/01/21 05:53:24;;;;;;;20.02;13.07;;;0.20;98.40;;;;;;5090602;28;20081;-49
2024/01/21 05:55:49;;;;;;;21.35;14.00;;;0.30;98.00;;;;;;5090577;28;20471;-48
2024/01/21 05:58:16;;;;;;;18.77;12.38;;;0.30;98.10;;;;;;5090515;28;20119;-49
2024/01/21 06:00:41;;;;;;;19.60;12.77;;;0.30;98.20;;;;;;5090281;28;20029;-48
2024/01/21 06:03:07;;;;;;;17.77;12.90;;;0.20;98.20;;;;;;5090418;28;20078;-49
2024/01/21 06:05:33;;;;;;;22.02;12.90;;;0.20;97.90;;;;;;5090738;28;20498;-48
2024/01/21 06:07:59;;;;;;;26.90;16.75;;;0.20;97.80;;;;;;5071316;28;20121;-48
2024/01/21 06:10:24;;;;;;;19.75;13.35;;;0.20;97.70;;;;;;5090715;28;20059;-48
2024/01/21 06:12:50;;;;;;;23.30;14.63;;;0.20;97.80;;;;;;5090418;28;20028;-48
2024/01/21 06:15:16;;;;;;;22.58;14.88;;;0.20;98.20;;;;;;5088101;28;20032;-48
2024/01/21 06:17:41;;;;;;;26.25;17.48;;;0.20;98.30;;;;;;5090288;28;20027;-48
2024/01/21 06:20:08;;;;;;;40.13;26.02;;;0.10;98.40;;;;;;5090393;28;20032;-48
2024/01/21 06:22:37;;;;;;;31.58;20.73;;;0.10;98.40;;;;;;5092892;28;20455;-49
2024/01/21 06:25:04;;;;;;;32.30;23.40;;;0.00;99.20;;;;;;5093843;28;20430;-48
2024/01/21 06:27:29;;;;;;;30.48;21.63;;;0.10;99.30;;;;;;5074877;28;20043;-49
2024/01/21 06:29:55;;;;;;;29.75;21.20;;;-0.30;98.90;;;;;;5074508;28;20040;-48
2024/01/21 06:32:21;;;;;;;36.33;23.45;;;-0.60;99.90;;;;;;5093689;28;20028;-48
2024/01/21 06:34:46;;;;;;;32.05;19.58;;;-0.50;99.90;;;;;;5093469;28;20079;-47
2024/01/21 06:37:12;;;;;;;32.35;20.42;;;-0.60;99.90;;;;;;5093554;28;20027;-49
2024/01/21 06:39:38;;;;;;;31.45;22.30;;;-0.60;99.90;;;;;;5093666;28;20028;-49
2024/01/21 06:42:04;;;;;;;39.13;26.92;;;-0.70;99.90;;;;;;5093598;28;20486;-48
2024/01/21 06:44:29;;;;;;;31.70;21.80;;;-0.60;99.90;;;;;;5074242;28;20047;-47
2024/01/21 06:46:55;;;;;;;42.05;30.45;;;0.20;99.90;;;;;;5093271;28;20380;-49
2024/01/21 06:49:21;;;;;;;33.25;24.65;;;2.00;99.30;;;;;;5093494;28;20055;-48
2024/01/21 06:51:46;;;;;;;29.55;25.20;;;3.80;98.80;;;;;;5093553;28;20078;-47
2024/01/21 06:54:13;;;;;;;33.13;24.85;;;5.80;95.80;;;;;;5090993;28;20048;-47
2024/01/21 06:56:39;;;;;;;38.40;28.00;;;7.70;93.50;;;;;;5093275;28;20040;-50
2024/01/21 06:59:05;;;;;;;34.08;25.63;;;8.20;90.20;;;;;;5093390;28;20524;-49
2024/01/21 07:01:30;;;;;;;31.30;23.48;;;10.00;90.50;;;;;;5093417;28;20062;-48
2024/01/21 07:03:56;;;;;;;50.53;35.03;;;11.20;87.50;;;;;;5073811;28;20501;-48
2024/01/21 07:06:22;;;;;;;55.33;36.10;;;12.20;83.70;;;;;;5093211;28;20047;-49
2024/01/21 07:08:48;;;;;;;52.08;39.35;;;12.80;82.00;;;;;;5092994;28;20467;-49
2024/01/21 07:11:14;;;;;;;46.67;32.40;;;13.40;80.10;;;;;;5073724;28;20043;-48
2024/01/21 07:13:39;;;;;;;47.20;34.15;;;13.60;78.60;;;;;;5092931;28;20020;-49
2024/01/21 07:16:05;;;;;;;73.80;49.33;;;14.20;77.50;;;;;;5053344;28;20650;-48
2024/01/21 07:18:31;;;;;;;91.18;57.00;;;;;;;;;;5053553;28;20396;-48
2024/01/21 07:20:57;;;;;;;103.30;68.40;;;16.00;74.30;;;;;;5072403;28;20032;-49
2024/01/21 07:23:23;;;;;;;82.32;53.97;;;16.30;73.00;;;;;;5072682;28;20031;-50
2024/01/21 07:25:49;;;;;;;77.80;49.88;;;16.70;75.80;;;;;;5072786;28;20715;-48
2024/01/21 07:28:17;;;;;;;93.43;63.33;;;17.00;71.40;;;;;;5072477;28;20062;-50
2024/01/21 07:30:44;;;;;;;63.30;45.80;;;17.30;70.90;;;;;;5072138;28;20660;-49
2024/01/21 07:33:10;;;;;;;66.25;46.58;;;18.20;70.60;;;;;;5071268;28;20025;-48
2024/01/21 07:35:36;;;;;;;67.22;49.20;;;18.30;69.30;;;;;;5053171;28;20504;-49
2024/01/21 07:38:02;;;;;;;61.92;49.47;;;18.40;68.90;;;;;;5072060;28;20024;-49
2024/01/21 07:40:30;;;;;;;43.47;32.22;;;;;;;;;;5036269;28;20495;-49
2024/01/21 07:42:55;;;;;;;74.85;53.45;;;19.00;86.40;;;;;;5072434;28;20511;-49
2024/01/21 07:45:21;;;;;;;97.80;69.13;;;19.10;67.60;;;;;;5072139;28;20174;-49
2024/01/21 07:47:47;;;;;;;40.25;30.92;;;19.10;67.20;;;;;;5071821;28;20032;-50
2024/01/21 07:50:12;;;;;;;26.33;21.15;;;19.30;66.90;;;;;;5036394;28;20115;-48
2024/01/21 07:52:38;;;;;;;24.65;20.20;;;19.50;66.40;;;;;;5036265;28;20125;-48
2024/01/21 07:55:04;;;;;;;23.90;19.75;;;;;;;;;;5071846;28;20039;-49
2024/01/21 07:57:30;;;;;;;32.75;28.08;;;20.20;71.60;;;;;;5052827;28;20037;-50
2024/01/21 07:59:56;;;;;;;34.47;29.00;;;20.70;65.00;;;;;;5071592;28;20028;-50
2024/01/21 08:02:27;;;;;;;21.90;18.10;;;20.70;65.50;;;;;;5036189;28;20040;-49
2024/01/21 08:04:53;;;;;;;24.25;19.90;;;21.10;65.00;;;;;;5071724;28;20036;-47
2024/01/21 08:07:19;;;;;;;24.42;19.02;;;;;;;;;;5071682;28;20107;-48
2024/01/21 08:09:46;;;;;;;25.42;21.40;;;;;;;;;;5071618;28;20032;-48
2024/01/21 08:12:11;;;;;;;27.95;24.98;;;21.50;74.10;;;;;;5071388;28;20024;-48
2024/01/21 08:14:37;;;;;;;21.88;19.52;;;;;;;;;;5071593;28;20035;-47
2024/01/21 08:17:03;;;;;;;18.08;15.63;;;;;;;;;;5052483;28;20036;-47
2024/01/21 08:19:29;;;;;;;17.90;15.77;;;20.20;95.70;;;;;;5071430;28;20460;-49
2024/01/21 08:21:55;;;;;;;19.38;16.65;;;21.10;63.40;;;;;;5071369;28;20082;-48
2024/01/21 08:24:21;;;;;;;26.15;18.63;;;21.10;64.30;;;;;;5035540;28;20044;-48
2024/01/21 08:26:47;;;;;;;21.00;18.80;;;;;;;;;;5035628;28;20044;-48
2024/01/21 08:29:13;;;;;;;17.95;16.08;;;;;;;;;;5070977;28;20032;-48
2024/01/21 08:31:46;;;;;;;15.98;13.75;;;;;;;;;;5052256;28;20116;-47
2024/01/21 08:34:12;;;;;;;18.38;13.77;;;21.90;62.30;;;;;;5071363;28;20089;-48
2024/01/21 08:36:38;;;;;;;16.65;13.27;;;;;;;;;;5067396;28;20508;-48
2024/01/21 08:39:09;;;;;;;15.07;13.48;;;;;;;;;;5071201;28;20081;-48
2024/01/21 08:41:35;;;;;;;14.80;13.30;;;;;;;;;;5070928;28;20043;-48
2024/01/21 08:44:02;;;;;;;15.52;13.50;;;;;;;;;;5051517;28;20068;-49
2024/01/21 08:46:28;;;;;;;14.55;12.95;;;;;;;;;;5070606;28;20077;-48
2024/01/21 08:48:54;;;;;;;13.88;12.38;;;21.40;89.00;;;;;;5087004;28;20123;-49
2024/01/21 08:51:20;;;;;;;14.07;12.18;;;;;;;;;;5090972;28;20099;-48
2024/01/21 08:53:46;;;;;;;16.23;12.55;;;;;;;;;;5055048;28;20043;-49
2024/01/21 08:56:12;;;;;;;14.30;12.80;;;21.20;61.80;;;;;;5091075;28;20036;-49
2024/01/21 08:58:39;;;;;;;16.70;13.07;;;;;;;;;;5090911;28;20032;-48
2024/01/21 09:01:05;;;;;;;14.93;12.82;;;;;;;;;;5090870;28;20024;-49
2024/01/21 09:03:31;;;;;;;16.15;13.68;;;;;;;;;;5091304;28;20024;-48
2024/01/21 09:05:57;;;;;;;15.93;14.23;;;;;;;;;;5090815;28;20118;-49
2024/01/21 09:08:23;;;;;;;17.58;14.98;;;;;;;;;;5087182;28;20708;-47
2024/01/21 09:10:49;;;;;;;18.50;15.35;;;22.00;81.90;;;;;;5088381;28;20054;-47
2024/01/21 09:13:15;;;;;;;19.27;14.70;;;;;;;;;;5090585;28;20489;-47
2024/01/21 09:15:41;;;;;;;18.65;14.55;;;21.80;63.10;;;;;;5054529;28;20691;-47
2024/01/21 09:18:07;;;;;;;21.67;15.80;;;21.70;62.20;;;;;;5090657;28;20054;-48
2024/01/21 09:20:32;;;;;;;17.27;15.52;;;21.70;62.50;;;;;;5034120;28;20038;-47
2024/01/21 09:22:58;;;;;;;18.73;15.18;;;20.90;62.60;;;;;;5079656;28;20032;-48
2024/01/21 09:25:24;;;;;;;17.55;14.80;;;;;;;;;;5077558;28;20072;-47
2024/01/21 09:27:50;;;;;;;20.25;16.45;;;;;;;;;;5042817;28;20036;-46
2024/01/21 09:30:16;;;;;;;18.05;15.32;;;21.60;95.20;;;;;;5070594;28;20472;-48
2024/01/21 09:32:42;;;;;;;18.50;16.35;;;21.60;62.70;;;;;;5074727;28;20111;-47
2024/01/21 09:35:08;;;;;;;21.55;17.08;;;21.70;84.80;;;;;;5097116;28;20043;-48
2024/01/21 09:37:34;;;;;;;18.70;16.67;;;21.20;62.70;;;;;;5110936;28;20034;-49
2024/01/21 09:39:59;;;;;;;19.63;17.55;;;21.70;62.70;;;;;;5110338;28;20533;-48
2024/01/21 09:42:25;;;;;;;19.02;16.45;;;21.70;63.10;;;;;;5104547;28;20032;-47
2024/01/21 09:44:52;;;;;;;19.00;16.85;;;21.40;62.90;;;;;;5066499;28;20138;-48
2024/01/21 09:47:18;;;;;;;18.85;16.38;;;21.20;63.10;;;;;;5095797;28;20474;-49
2024/01/21 09:49:45;;;;;;;18.35;16.35;;;21.50;62.90;;;;;;5098256;28;20085;-48
2024/01/21 09:52:11;;;;;;;31.10;27.98;;;20.50;62.40;;;;;;5102138;28;20539;-47
2024/01/21 09:54:37;;;;;;;21.67;17.75;;;20.80;63.70;;;;;;5099340;28;20028;-47
2024/01/21 09:57:05;;;;;;;19.90;17.63;;;;;;;;;;5100158;28;20420;-47
2024/01/21 09:59:32;;;;;;;17.67;15.85;;;20.70;80.50;;;;;;5062027;28;20054;-47
2024/01/21 10:01:58;;;;;;;20.60;17.23;;;20.60;63.70;;;;;;5078338;28;20483;-47
2024/01/21 10:04:24;;;;;;;19.23;16.52;;;21.20;63.60;;;;;;5114570;28;20051;-46
2024/01/21 10:06:52;;;;;;;20.67;17.85;;;21.30;63.60;;;;;;5053634;28;20032;-49
2024/01/21 10:09:22;;;;;;;20.20;14.65;;;20.90;63.30;;;;;;5076947;28;20066;-48
2024/01/21 10:11:56;;;;;;;16.98;14.73;;;20.80;63.40;;;;;;5103529;28;20471;-47
2024/01/21 10:14:24;;;;;;;16.38;13.55;;;20.80;63.50;;;;;;5103402;28;20035;-48
2024/01/21 10:16:50;;;;;;;14.48;11.70;;;20.80;63.80;;;;;;5103655;28;20030;-47
2024/01/21 10:19:26;;;;;;;11.95;9.77;;;21.10;63.50;;;;;;5066069;28;20040;-48
2024/01/21 10:21:52;;;;;;;8.90;7.78;;;;;;;;;;5093804;28;20039;-48
2024/01/21 10:24:24;;;;;;;10.60;7.88;;;22.10;62.20;;;;;;5111504;28;20028;-48
2024/01/21 10:26:52;;;;;;;9.90;8.23;;;22.00;62.50;;;;;;5113729;28;20031;-49
2024/01/21 10:29:18;;;;;;;8.93;7.82;;;21.50;62.00;;;;;;5114026;28;20073;-48
2024/01/21 10:31:44;;;;;;;14.02;12.45;;;22.20;62.30;;;;;;5113512;28;20024;-48
2024/01/21 10:34:12;;;;;;;13.05;11.13;;;22.00;62.00;;;;;;5113715;28;20568;-47
2024/01/21 10:36:43;;;;;;;10.10;7.78;;;22.10;62.10;;;;;;5109317;28;20456;-46
2024/01/21 10:39:16;;;;;;;22.20;14.60;;;21.40;61.60;;;;;;5111522;28;20028;-47
2024/01/21 10:41:43;;;;;;;12.30;8.50;;;21.40;62.00;;;;;;5107058;28;20514;-46
2024/01/21 10:44:09;;;;;;;10.30;7.57;;;21.70;62.20;;;;;;5098143;28;20036;-48
2024/01/21 10:46:37;;;;;;;9.90;6.68;;;21.70;62.30;;;;;;5049603;28;20032;-50
2024/01/21 10:49:03;;;;;;;11.00;7.45;;;21.00;62.50;;;;;;5102439;28;20034;-48
2024/01/21 10:51:29;;;;;;;18.85;11.70;;;20.80;62.60;;;;;;5102038;28;20028;-49
2024/01/21 10:53:59;;;;;;;18.88;10.68;;;19.60;63.00;;;;;;5103257;28;20020;-49
2024/01/21 10:56:26;;;;;;;8.70;6.97;;;;;;;;;;5101763;28;20038;-50
2024/01/21 10:58:52;;;;;;;108.63;52.00;;;18.10;96.40;;;;;;5058438;28;20068;-47
2024/01/21 11:01:19;;;;;;;11.07;7.82;;;17.50;65.10;;;;;;5101885;28;20137;-49
2024/01/21 11:03:48;;;;;;;10.27;7.50;;;17.70;66.40;;;;;;5060139;28;20047;-48
2024/01/21 11:06:15;;;;;;;10.05;6.72;;;17.80;66.40;;;;;;5060357;28;20045;-48
2024/01/21 11:08:44;;;;;;;9.75;7.03;;;;;;;;;;5069821;28;20047;-49
2024/01/21 11:11:13;;;;;;;21.20;12.52;;;19.40;64.60;;;;;;5061364;28;20037;-47
2024/01/21 11:13:49;;;;;;;45.58;26.75;;;;;;;;;;5050209;28;20112;-48
2024/01/21 11:16:31;;;;;;;17.05;10.32;;;;;;;;;;5055708;28;20099;-49
2024/01/21 11:19:04;;;;;;;;;;;15.10;66.90;;;;;;5050208;28;20396;-48
2024/01/21 11:21:30;;;;;;;19.45;10.60;;;14.50;70.10;;;;;;5049793;28;20047;-48
2024/01/21 11:23:59;;;;;;;10.88;8.05;;;14.50;68.60;;;;;;5049835;28;20382;-48
2024/01/21 11:26:27;;;;;;;18.33;12.90;;;;;;;;;;5049906;28;20100;-48
2024/01/21 11:28:56;;;;;;;13.85;9.27;;;16.40;67.60;;;;;;5016305;28;20040;-47
2024/01/21 11:31:23;;;;;;;15.73;10.18;;;17.20;67.60;;;;;;5049830;28;20032;-48
2024/01/21 11:34:25;;;;;;;12.73;9.70;;;;;;;;;;5054782;28;20211;-48
2024/01/21 11:36:51;;;;;;;13.88;10.38;;;16.50;65.80;;;;;;5021992;28;20124;-48
2024/01/21 11:39:21;;;;;;;9.68;7.28;;;15.80;67.30;;;;;;5059567;28;20029;-48
2024/01/21 11:41:48;;;;;;;9.13;8.13;;;16.10;68.20;;;;;;5088978;28;20039;-47
2024/01/21 11:44:19;;;;;;;9.73;6.90;;;16.70;67.30;;;;;;5106513;28;20573;-49
2024/01/21 11:46:45;;;;;;;11.90;8.63;;;17.30;67.10;;;;;;5102497;28;20101;-47
2024/01/21 11:49:11;;;;;;;12.05;8.23;;;16.40;66.70;;;;;;5099041;28;20090;-51
2024/01/21 11:51:38;;;;;;;10.38;8.32;;;15.50;68.00;;;;;;5086985;28;20036;-47
2024/01/21 11:54:04;;;;;;;11.85;7.97;;;16.50;68.20;;;;;;5063692;28;20572;-48
2024/01/21 11:56:30;;;;;;;10.02;7.47;;;17.00;68.60;;;;;;5100665;28;20035;-48
2024/01/21 11:58:57;;;;;;;16.30;7.65;;;17.40;67.80;;;;;;5099074;28;20027;-48
2024/01/21 12:01:24;;;;;;;13.43;8.60;;;15.50;67.60;;;;;;5109193;28;20039;-48
2024/01/21 12:03:50;;;;;;;11.82;7.43;;;15.60;69.00;;;;;;5110085;28;20483;-49
2024/01/21 12:06:18;;;;;;;14.70;9.13;;;15.80;68.50;;;;;;5109835;28;20049;-48
2024/01/21 12:08:45;;;;;;;10.40;8.13;;;16.50;69.50;;;;;;5109820;28;20408;-48
2024/01/21 12:11:12;;;;;;;11.52;6.95;;;16.80;68.90;;;;;;5091582;28;20414;-49
2024/01/21 12:13:40;;;;;;;11.95;9.02;;;17.00;68.10;;;;;;5106816;28;20032;-49
2024/01/21 12:16:08;;;;;;;15.88;10.38;;;16.30;97.00;;;;;;5110045;28;20039;-48
2024/01/21 12:18:40;;;;;;;14.25;8.30;;;14.90;69.30;;;;;;5108738;28;20032;-49
2024/01/21 12:21:07;;;;;;;12.82;8.05;;;;;;;;;;5089799;28;20080;-48
2024/01/21 12:23:33;;;;;;;15.00;10.55;;;;;;;;;;5108135;28;20448;-48
2024/01/21 12:25:59;;;;;;;15.30;12.25;;;13.10;87.40;;;;;;5105023;28;20030;-48
2024/01/21 12:28:25;;;;;;;14.15;9.48;;;14.00;72.40;;;;;;5107705;28;20023;-48
2024/01/21 12:30:52;;;;;;;16.88;11.18;;;13.70;71.60;;;;;;5108681;28;20027;-48
2024/01/21 12:33:18;;;;;;;11.60;8.38;;;12.60;71.30;;;;;;5110031;28;20486;-48
2024/01/21 12:35:44;;;;;;;11.52;8.52;;;12.20;72.10;;;;;;5091271;28;20051;-48
2024/01/21 12:38:10;;;;;;;12.80;8.25;;;13.20;72.40;;;;;;5108046;28;20034;-48
2024/01/21 12:40:38;;;;;;;14.27;10.85;;;;;;;;;;5109682;28;20710;-48